Houston, Arkansas
Current Conditions -  °F | °C
As of 2:53 AM on Saturday 20 Dec 2014 (Local Time) from KRUE Reporting Station
Overcast Overcast  
Wind Chill: 41°   Ceiling: 3400
Heat Index: 41°   Visibility: 8mi
Dew Point: 37°   Wind: 0mph
Humidity: 86%   Direction: NA
Pressure: 30.22"   Gusts: NA
Location:  35.03°N, 92.69°W
Report Text: KRUE 200853Z AUTO 00000KT 8SM OVC034 05/03 A3022 RMK AO2 SLP233 T00500028 56005
Loading
Personal Weather Stations






























Interactive Weather Map New forecast layout! Learn more

10-Day Weather Forecast

Advertisements
Track Severe Weather on mobile